createdAt,value
2019-04-04T06:45:20.170Z,24.05
2019-04-04T06:47:46.534Z,24.04
2019-04-04T06:50:12.927Z,23.98
2019-04-04T06:52:39.318Z,24.10
2019-04-04T06:55:05.615Z,24.09
2019-04-04T06:57:32.012Z,24.12
2019-04-04T07:00:06.751Z,24.16
2019-04-04T07:02:33.067Z,24.25
2019-04-04T07:04:59.499Z,24.26
2019-04-04T07:07:25.842Z,24.29
2019-04-04T07:09:52.164Z,24.31
2019-04-04T07:12:27.859Z,24.44
2019-04-04T07:14:49.449Z,24.40
2019-04-04T07:17:16.163Z,24.41
2019-04-04T07:19:39.661Z,24.42
2019-04-04T07:22:06.052Z,24.38
2019-04-04T07:24:32.391Z,24.34
2019-04-04T07:26:58.730Z,24.38
2019-04-04T07:29:25.891Z,24.43
2019-04-04T07:31:51.427Z,24.40
2019-04-04T07:34:17.767Z,24.34
2019-04-04T07:36:44.130Z,24.39
2019-04-04T07:39:12.313Z,24.56
2019-04-04T07:41:40.057Z,24.44
2019-04-04T07:44:03.229Z,24.42
2019-04-04T07:46:29.554Z,24.46
2019-04-04T07:48:55.989Z,24.47
2019-04-04T07:51:22.368Z,24.47
2019-04-04T07:53:48.741Z,24.43
2019-04-04T07:56:15.133Z,24.47
2019-04-04T07:58:41.496Z,24.43
2019-04-04T08:01:08.038Z,24.43
2019-04-04T08:03:34.369Z,24.46
2019-04-04T08:06:00.757Z,24.43
2019-04-04T08:08:27.217Z,24.46
2019-04-04T08:10:53.780Z,24.41
2019-04-04T08:13:20.165Z,24.42
2019-04-04T08:15:48.685Z,24.44
2019-04-04T08:18:15.169Z,24.45
2019-04-04T08:20:41.551Z,24.41
2019-04-04T08:23:07.947Z,24.43
2019-04-04T08:25:34.254Z,24.42
2019-04-04T08:28:00.636Z,24.41
2019-04-04T08:30:27.079Z,24.40
2019-04-04T08:32:53.459Z,24.39
2019-04-04T08:35:20.254Z,24.35
2019-04-04T08:40:21.878Z,24.35
2019-04-04T08:42:48.220Z,24.34
2019-04-04T08:45:14.614Z,24.34
2019-04-04T08:47:40.942Z,24.31
2019-04-04T08:50:07.319Z,24.33
2019-04-04T08:52:33.686Z,24.39
2019-04-04T08:55:00.031Z,24.32
2019-04-04T08:57:26.438Z,24.33
2019-04-04T08:59:52.798Z,24.33
2019-04-04T09:02:19.229Z,24.34
2019-04-04T09:04:45.563Z,24.28
2019-04-04T09:07:11.929Z,24.28
2019-04-04T09:09:38.408Z,24.30
2019-04-04T09:12:04.706Z,24.29
2019-04-04T09:14:31.123Z,24.32
2019-04-04T09:16:57.464Z,24.27
2019-04-04T09:19:23.857Z,24.28
2019-04-04T09:21:50.162Z,24.25
2019-04-04T09:24:16.691Z,24.21
2019-04-04T09:26:43.079Z,24.25
2019-04-04T09:29:09.402Z,24.31
2019-04-04T09:31:35.783Z,24.30
2019-04-04T09:34:02.137Z,24.43
2019-04-04T09:36:28.524Z,24.26
2019-04-04T09:38:54.839Z,24.26
2019-04-04T09:41:21.188Z,24.27
2019-04-04T09:43:47.529Z,24.18
2019-04-04T09:46:14.136Z,24.25
2019-04-04T09:48:40.469Z,24.24
2019-04-04T09:51:06.894Z,24.20
2019-04-04T09:53:33.199Z,24.14
2019-04-04T09:55:59.556Z,24.16
2019-04-04T09:58:25.931Z,24.15
2019-04-04T10:00:52.257Z,24.12
2019-04-04T10:03:18.652Z,24.08
2019-04-04T10:05:45.004Z,24.10
2019-04-04T10:08:11.449Z,24.10
2019-04-04T10:10:37.757Z,24.09
2019-04-04T10:13:04.116Z,24.11
2019-04-04T10:15:30.511Z,24.16
2019-04-04T10:17:56.871Z,24.12
2019-04-04T10:20:23.372Z,24.15
2019-04-04T10:22:49.708Z,24.14
2019-04-04T10:25:16.067Z,24.19
2019-04-04T10:27:42.418Z,24.13
2019-04-04T10:30:08.751Z,24.13
2019-04-04T10:32:35.106Z,24.10
2019-04-04T10:35:01.490Z,24.10
2019-04-04T10:37:27.831Z,24.05
2019-04-04T10:39:54.201Z,24.10
2019-04-04T10:42:20.533Z,24.10
2019-04-04T10:44:46.883Z,24.10
2019-04-04T10:47:15.608Z,24.16
2019-04-04T10:49:40.204Z,24.13
2019-04-04T10:52:06.629Z,24.09
2019-04-04T10:54:33.034Z,24.13
2019-04-04T10:56:59.392Z,24.08
2019-04-04T10:59:25.770Z,24.01
2019-04-04T11:01:52.163Z,24.09
2019-04-04T11:04:18.525Z,24.09
2019-04-04T11:06:44.904Z,24.04
2019-04-04T11:09:11.288Z,24.13
2019-04-04T11:11:37.692Z,24.05
2019-04-04T11:14:04.063Z,24.12
2019-04-04T11:16:30.775Z,24.08
2019-04-04T11:18:56.743Z,24.00
2019-04-04T11:21:23.533Z,24.04
2019-04-04T11:23:49.863Z,24.04
2019-04-04T11:26:16.238Z,24.04
2019-04-04T11:28:42.720Z,24.05
2019-04-04T11:31:09.103Z,24.00
2019-04-04T11:33:35.396Z,24.01
2019-04-04T11:36:01.828Z,24.15
2019-04-04T11:38:28.174Z,24.11
2019-04-04T11:40:54.513Z,24.12
2019-04-04T11:43:20.857Z,24.09
2019-04-04T11:45:48.282Z,24.05
2019-04-04T11:48:14.657Z,24.04
2019-04-04T11:50:41.015Z,24.02
2019-04-04T11:53:07.416Z,24.00
2019-04-04T11:55:34.250Z,24.03
2019-04-04T11:58:00.224Z,24.00
2019-04-04T12:00:26.619Z,24.09
2019-04-04T12:02:53.017Z,24.13
2019-04-04T12:05:19.386Z,24.06
2019-04-04T12:07:45.786Z,24.01
2019-04-04T12:10:12.190Z,24.02
2019-04-04T12:12:38.736Z,24.09
2019-04-04T12:15:05.213Z,24.00
2019-04-04T12:17:31.513Z,23.99
2019-04-04T12:19:58.276Z,23.97
2019-04-04T12:22:24.742Z,23.98
2019-04-04T12:24:51.141Z,23.97
2019-04-04T12:27:17.507Z,24.03
2019-04-04T12:29:43.905Z,23.99
2019-04-04T12:32:10.366Z,23.98
2019-04-04T12:34:36.759Z,23.91
2019-04-04T12:37:03.053Z,23.90
2019-04-04T12:39:29.463Z,23.87
2019-04-04T12:41:55.872Z,23.88
2019-04-04T12:44:22.377Z,23.88
2019-04-04T12:46:48.768Z,23.88
2019-04-04T12:49:15.141Z,23.96
2019-04-04T12:51:41.534Z,23.97
2019-04-04T12:54:07.997Z,24.01
2019-04-04T12:56:34.806Z,24.01
2019-04-04T12:59:01.609Z,24.01
2019-04-04T13:01:27.894Z,24.02
2019-04-04T13:03:54.312Z,24.05
2019-04-04T13:06:20.735Z,24.02
2019-04-04T13:08:47.076Z,24.05
2019-04-04T13:11:13.569Z,24.02
2019-04-04T13:13:39.978Z,24.01
2019-04-04T13:16:06.361Z,23.99
2019-04-04T13:18:32.754Z,23.99
2019-04-04T13:20:58.996Z,24.01
2019-04-04T13:23:25.557Z,24.11
2019-04-04T13:25:51.855Z,24.04
2019-04-04T13:28:18.272Z,24.04
2019-04-04T13:30:44.990Z,24.02
2019-04-04T13:33:11.475Z,24.01
2019-04-04T13:35:38.471Z,23.99
2019-04-04T13:38:04.373Z,23.99
2019-04-04T13:40:30.741Z,24.02
2019-04-04T13:42:57.073Z,23.98
2019-04-04T13:45:26.072Z,24.01
2019-04-04T13:47:51.946Z,24.04
2019-04-04T13:50:20.357Z,24.06
2019-04-04T13:52:44.660Z,24.06
2019-04-04T13:55:11.000Z,24.05
2019-04-04T13:57:39.343Z,24.03
2019-04-04T14:00:03.830Z,24.06
2019-04-04T14:02:30.202Z,24.05
2019-04-04T14:05:08.930Z,24.04
2019-04-04T14:07:23.786Z,24.09
2019-04-04T14:09:50.442Z,24.02
2019-04-04T14:12:16.892Z,24.08
2019-04-04T14:14:43.522Z,24.06
2019-04-04T14:17:10.155Z,24.06
2019-04-04T14:19:37.099Z,24.11
2019-04-04T14:22:03.665Z,24.15
2019-04-04T14:24:30.378Z,24.20
2019-04-04T14:26:56.663Z,24.08
2019-04-04T14:29:27.777Z,24.12
2019-04-04T14:31:49.432Z,24.12
2019-04-04T14:34:15.715Z,24.09
2019-04-04T14:36:42.078Z,24.12
2019-04-04T14:39:08.410Z,24.14
2019-04-04T14:41:34.777Z,24.15
2019-04-04T14:44:01.136Z,24.15
2019-04-04T14:46:27.502Z,24.12
2019-04-04T14:48:53.871Z,24.09
2019-04-04T14:51:20.273Z,24.09
2019-04-04T14:53:46.593Z,24.08
2019-04-04T14:56:13.052Z,24.09
2019-04-04T14:58:39.389Z,24.13
2019-04-04T15:01:05.754Z,24.08
2019-04-04T15:03:32.096Z,24.06
2019-04-04T15:05:58.500Z,24.05
2019-04-04T15:08:24.857Z,24.09
2019-04-04T15:10:51.201Z,24.10
2019-04-04T15:13:17.563Z,24.03
2019-04-04T15:15:43.938Z,24.03
2019-04-04T15:18:10.454Z,24.13
2019-04-04T15:20:36.804Z,24.08
2019-04-04T15:23:03.196Z,24.10
2019-04-04T15:25:29.536Z,24.12
2019-04-04T15:27:55.880Z,24.08
2019-04-04T15:30:22.256Z,24.08
2019-04-04T15:32:48.643Z,24.05
2019-04-04T15:35:14.972Z,24.00
2019-04-04T15:37:41.407Z,23.98
2019-04-04T15:40:07.743Z,24.00
2019-04-04T15:42:34.085Z,23.97
2019-04-04T15:45:00.436Z,23.96
2019-04-04T15:47:26.832Z,23.95
2019-04-04T15:49:53.171Z,23.92
2019-04-04T15:52:19.586Z,23.94
2019-04-04T15:54:45.979Z,23.91
2019-04-04T15:57:12.423Z,23.89
2019-04-04T15:59:38.727Z,23.89
2019-04-04T16:02:05.063Z,23.89
2019-04-04T16:04:31.423Z,23.84
2019-04-04T16:06:57.801Z,23.84
2019-04-04T16:09:24.130Z,23.85
2019-04-04T16:11:50.514Z,23.85
2019-04-04T16:14:16.850Z,23.83
2019-04-04T16:16:43.277Z,23.81
2019-04-04T16:19:09.591Z,23.81
2019-04-04T16:21:36.081Z,23.79
2019-04-04T16:24:02.375Z,23.80
2019-04-04T16:26:30.531Z,23.76
2019-04-04T16:28:55.102Z,23.76
2019-04-04T16:31:25.599Z,23.75
2019-04-04T16:33:51.947Z,23.75
2019-04-04T16:36:18.324Z,23.73
2019-04-04T16:38:44.701Z,23.74
2019-04-04T16:41:11.010Z,23.69
2019-04-04T16:43:37.350Z,23.69
2019-04-04T16:46:03.667Z,23.66
2019-04-04T16:48:30.032Z,23.66
2019-04-04T16:50:56.412Z,23.65
2019-04-04T16:53:22.746Z,23.68
2019-04-04T16:55:49.099Z,23.62
2019-04-04T16:58:15.429Z,23.61
2019-04-04T17:00:41.802Z,23.59
2019-04-04T17:03:08.134Z,23.58
2019-04-04T17:05:34.525Z,23.56
2019-04-04T17:08:00.894Z,23.57
2019-04-04T17:10:28.273Z,23.58
2019-04-04T17:12:53.640Z,23.58
2019-04-04T17:15:19.932Z,23.60
2019-04-04T17:17:46.283Z,23.60
2019-04-04T17:20:12.682Z,23.58
2019-04-04T17:22:39.064Z,23.60
2019-04-04T17:25:05.403Z,23.62
2019-04-04T17:27:31.925Z,23.61
2019-04-04T17:29:58.317Z,23.61
2019-04-04T17:32:24.660Z,23.58
2019-04-04T17:34:51.316Z,23.56
2019-04-04T17:37:17.709Z,23.51
2019-04-04T17:39:43.916Z,23.46
2019-04-04T17:42:12.709Z,23.44
2019-04-04T17:44:39.096Z,23.42
2019-04-04T17:47:05.466Z,23.41
2019-04-04T17:49:31.781Z,23.36
2019-04-04T17:51:58.383Z,23.32
2019-04-04T17:54:24.544Z,23.29
2019-04-04T17:56:50.813Z,23.26
2019-04-04T17:59:17.183Z,23.18
2019-04-04T18:01:43.534Z,23.18
2019-04-04T18:04:09.862Z,23.20
2019-04-04T18:06:36.268Z,23.14
2019-04-04T18:09:02.597Z,23.11
2019-04-04T18:11:28.944Z,23.05
2019-04-04T18:13:55.301Z,23.01
2019-04-04T18:16:21.640Z,22.99
2019-04-04T18:18:48.005Z,22.95
2019-04-04T18:21:14.317Z,22.95
2019-04-04T18:23:40.650Z,22.93
2019-04-04T18:26:06.990Z,22.84
2019-04-04T18:28:33.328Z,22.83
2019-04-04T18:30:59.700Z,22.78
2019-04-04T18:33:26.389Z,22.81
2019-04-04T18:35:52.414Z,22.76
2019-04-04T18:38:18.788Z,22.76
2019-04-04T18:40:45.114Z,22.67
2019-04-04T18:43:11.444Z,22.66
2019-04-04T18:45:37.798Z,22.61
2019-04-04T18:48:04.153Z,22.62
2019-04-04T18:50:30.523Z,22.64
2019-04-04T18:52:56.927Z,22.56
2019-04-04T18:55:23.259Z,22.55
2019-04-04T18:57:49.594Z,22.49
2019-04-04T19:00:15.922Z,22.48
2019-04-04T19:02:42.307Z,22.48
2019-04-04T19:05:08.643Z,22.44
2019-04-04T19:07:39.732Z,22.44
2019-04-04T19:10:01.310Z,22.42
2019-04-04T19:12:27.683Z,22.38
2019-04-04T19:14:54.016Z,22.37
2019-04-04T19:17:20.373Z,22.35
2019-04-04T19:19:46.743Z,22.34
2019-04-04T19:22:13.070Z,22.31
2019-04-04T19:24:39.434Z,22.31
2019-04-04T19:27:05.815Z,22.27
2019-04-04T19:29:32.198Z,22.26
2019-04-04T19:31:58.500Z,22.27
2019-04-04T19:34:24.826Z,22.23
2019-04-04T19:36:51.218Z,22.21
2019-04-04T19:39:17.607Z,22.19
2019-04-04T19:41:44.078Z,22.20
2019-04-04T19:44:10.462Z,22.16
2019-04-04T19:46:37.484Z,22.14
2019-04-04T19:49:03.064Z,22.12
2019-04-04T19:51:29.396Z,22.10
2019-04-04T19:53:55.739Z,22.08
2019-04-04T19:56:22.111Z,22.07
2019-04-04T19:58:48.520Z,22.05
2019-04-04T20:01:14.806Z,22.03
2019-04-04T20:03:41.131Z,22.03
2019-04-04T20:06:07.491Z,21.99
2019-04-04T20:08:33.856Z,21.96
2019-04-04T20:11:02.443Z,21.93
2019-04-04T20:13:31.082Z,21.92
2019-04-04T20:15:52.994Z,21.92
2019-04-04T20:18:19.324Z,21.89
2019-04-04T20:20:45.783Z,21.89
2019-04-04T20:23:12.127Z,21.90
2019-04-04T20:25:38.414Z,21.84
2019-04-04T20:28:04.730Z,21.88
2019-04-04T20:30:31.100Z,21.84
2019-04-04T20:32:57.460Z,21.79
2019-04-04T20:35:26.726Z,21.78
2019-04-04T20:37:50.187Z,21.78
2019-04-04T20:40:16.663Z,21.77
2019-04-04T20:42:43.065Z,21.77
2019-04-04T20:45:09.412Z,21.76
2019-04-04T20:47:35.741Z,21.72
2019-04-04T20:50:02.092Z,21.73
2019-04-04T20:52:28.492Z,21.68
2019-04-04T20:54:54.819Z,21.68
2019-04-04T20:57:21.159Z,21.72
2019-04-04T20:59:47.518Z,21.67
2019-04-04T21:02:13.850Z,21.91
2019-04-04T21:04:40.191Z,21.68
2019-04-04T21:07:06.584Z,21.62
2019-04-04T21:09:33.074Z,21.62
2019-04-04T21:11:59.411Z,21.60
2019-04-04T21:14:25.812Z,21.55
2019-04-04T21:16:52.158Z,21.54
2019-04-04T21:19:18.498Z,21.53
2019-04-04T21:21:44.829Z,21.52
2019-04-04T21:24:11.159Z,21.52
2019-04-04T21:26:37.558Z,21.49
2019-04-04T21:29:03.983Z,21.48
2019-04-04T21:31:30.301Z,21.47
2019-04-04T21:33:56.590Z,21.45
2019-04-04T21:36:22.955Z,21.44
2019-04-04T21:38:49.330Z,21.44
2019-04-04T21:41:15.678Z,21.43
2019-04-04T21:43:42.067Z,21.40
2019-04-04T21:46:08.335Z,21.37
2019-04-04T21:48:34.679Z,21.37
2019-04-04T21:51:01.069Z,21.36
2019-04-04T21:53:27.413Z,21.34
2019-04-04T21:55:53.795Z,21.33
2019-04-04T21:58:20.097Z,21.30
2019-04-04T22:00:46.421Z,21.30
2019-04-04T22:03:12.796Z,21.30
2019-04-04T22:05:39.144Z,21.27
2019-04-04T22:08:05.578Z,21.27
2019-04-04T22:10:31.904Z,21.27
2019-04-04T22:12:58.243Z,21.27
2019-04-04T22:15:24.575Z,21.25
2019-04-04T22:17:50.915Z,21.24
2019-04-04T22:20:17.277Z,21.22
2019-04-04T22:22:43.626Z,21.23
2019-04-04T22:25:09.991Z,21.22
2019-04-04T22:27:36.345Z,21.22
2019-04-04T22:30:02.681Z,21.20
2019-04-04T22:32:29.013Z,21.20
2019-04-04T22:34:55.378Z,21.21
2019-04-04T22:37:21.789Z,21.22
2019-04-04T22:39:48.157Z,21.21
2019-04-04T22:42:14.497Z,21.24
2019-04-04T22:44:40.857Z,21.23
2019-04-04T22:47:07.211Z,21.22
2019-04-04T22:49:33.586Z,21.20
2019-04-04T22:51:59.914Z,21.18
2019-04-04T22:54:26.247Z,21.18
2019-04-04T22:56:52.619Z,21.19
2019-04-04T22:59:18.959Z,21.19
2019-04-04T23:01:45.300Z,21.18
2019-04-04T23:04:11.643Z,21.19
2019-04-04T23:06:38.123Z,21.17
2019-04-04T23:09:04.494Z,21.16
2019-04-04T23:11:30.829Z,21.17
2019-04-04T23:13:57.163Z,21.20
2019-04-04T23:16:23.582Z,21.19
2019-04-04T23:18:49.916Z,21.16
2019-04-04T23:21:16.280Z,21.18
2019-04-04T23:23:42.660Z,21.16
2019-04-04T23:26:08.979Z,21.15
2019-04-04T23:28:35.340Z,21.15
2019-04-04T23:31:01.665Z,21.16
2019-04-04T23:33:28.038Z,21.15
2019-04-04T23:35:54.374Z,21.13
2019-04-04T23:38:20.719Z,21.10
2019-04-04T23:40:47.066Z,21.13
2019-04-04T23:43:13.411Z,21.13
2019-04-04T23:45:39.765Z,21.09
2019-04-04T23:48:06.071Z,21.10
2019-04-04T23:50:32.454Z,21.11
2019-04-04T23:52:58.748Z,21.08
2019-04-04T23:55:25.187Z,21.09
2019-04-04T23:57:51.457Z,21.08
